Flight Track Log - Related Links

Times and Time Zones

All times are in EDT time to prevent confusion due to time zone crossing. See the UAL538 flight status page for this flight to view local times or setup timezone preferences in your user account.

Time Position Orientation Groundspeed Altitude Reporting Facility
EDT Latitude Longitude Course Direction KTS MPH feet Rate Location/Type
Tue 10:05:17 PM 39.8833 -104.6000 66° East 179 206 6,200  Level Denver TRACON
Tue 10:06:17 PM 39.8833 -104.5333 90° East 230 265 7,600 2,050 Climbing Denver TRACON
Tue 10:07:17 PM 39.9167 -104.4333 66° East 282 325 10,300 1,947 Climbing Denver TRACON
Tue 10:08:00 PM 39.9532 -104.0978 78° East  Level FlightAware Approximate
Tue 10:08:11 PM 39.9333 -104.3500 75° East 337 388 11,300  Level Denver TRACON
Tue 10:09:00 PM 39.9790 -103.9553 75° East  Level FlightAware Approximate
Tue 10:09:14 PM 39.9606 -104.2042 76° East 369 425 14,300  Level Denver Center
Tue 10:10:00 PM 40.0016 -103.8119 66° East  Level FlightAware Approximate
Tue 10:10:15 PM 39.9803 -104.0703 79° East 381 438 16,700  Level Denver Center
Tue 10:11:17 PM 39.9975 -103.9197 81° East 391 450 19,300 2,195 Climbing Denver Center
Tue 10:12:18 PM 40.0200 -103.7781 78° East 403 464 21,200 1,707 Climbing Denver Center
Tue 10:13:20 PM 40.0425 -103.6372 78° East 412 474 22,800 1,500 Climbing Denver Center
Tue 10:14:22 PM 40.0681 -103.4819 78° East 432 497 24,300 1,463 Climbing Denver Center
Tue 10:15:23 PM 40.0942 -103.3217 78° East 444 511 25,800 1,317 Climbing Denver Center
Tue 10:16:25 PM 40.1214 -103.1561 78° East 461 531 27,000 1,610 Climbing Denver Center
Tue 10:17:26 PM 40.1517 -102.9600 79° East 467 537 29,100 1,610 Climbing Denver Center
Tue 10:18:28 PM 40.1783 -102.7933 78° East 465 535 30,300 1,220 Climbing Denver Center
Tue 10:19:29 PM 40.2022 -102.6306 79° East 475 547 31,600 1,220 Climbing Denver Center
Tue 10:20:31 PM 40.2283 -102.4681 78° East 478 550 32,800 683 Climbing Denver Center
Tue 10:21:32 PM 40.2561 -102.2800 79° East 473 544 33,000 98 Climbing Denver Center
Tue 10:22:34 PM 40.2814 -102.1172 78° East 477 549 33,000  Level Denver Center
Tue 10:23:35 PM 40.3100 -101.9250 79° East 482 555 33,000 49 Level Denver Center
Tue 10:24:37 PM 40.3344 -101.7575 79° East 489 563 33,100  Climbing Denver Center
Tue 10:25:38 PM 40.3633 -101.5636 79° East 487 560 33,000 -49 Descending Denver Center
Tue 10:26:39 PM 40.3869 -101.4003 79° East 479 551 33,000  Level Denver Center
Tue 10:27:41 PM 40.4103 -101.2364 79° East 479 551 33,000  Level Denver Center
Tue 10:28:42 PM 40.4375 -101.0467 79° East 478 550 33,000  Level Denver Center
Tue 10:29:44 PM 40.4597 -100.8842 80° East 477 549 33,000  Level Denver Center
Tue 10:30:45 PM 40.4839 -100.6950 80° East 476 548 33,000  Level Denver Center
Tue 10:31:47 PM 40.5053 -100.5333 80° East 475 547 33,000  Level Denver Center
Tue 10:32:48 PM 40.5286 -100.3422 81° East 478 550 33,000  Level Denver Center
Tue 10:33:49 PM 40.5497 -100.1764 80° East 483 556 33,000  Level Denver Center
Tue 10:34:51 PM 40.5733 -99.9817 81° East 484 557 33,000 49 Level Denver Center
Tue 10:35:52 PM 40.5942 -99.8194 80° East 487 560 33,100  Climbing Denver Center
Tue 10:36:54 PM 40.6150 -99.6433 81° East 488 562 33,000 -49 Descending Denver Center
Tue 10:37:55 PM 40.6356 -99.4686 81° East 486 559 33,000  Level Denver Center
Tue 10:38:56 PM 40.6567 -99.2922 81° East 487 560 33,000  Level Denver Center
Tue 10:39:58 PM 40.6806 -99.0797 82° East 491 565 33,000  Level Denver Center
Tue 10:40:36 PM 40.6933 -98.9747 81° East 491 565 33,000  Level Minneapolis Center
Tue 10:41:37 PM 40.7131 -98.7994 82° East 489 563 33,000  Level Minneapolis Center
Tue 10:42:39 PM 40.7325 -98.6222 82° East 492 566 33,000  Level Minneapolis Center
Tue 10:43:40 PM 40.7522 -98.4439 82° East 495 570 33,000  Level Minneapolis Center
Tue 10:44:41 PM 40.7711 -98.2644 82° East 497 572 33,000  Level Minneapolis Center
Tue 10:45:42 PM 40.7897 -98.0828 82° East 500 575 33,000  Level Minneapolis Center
Tue 10:46:43 PM 40.8056 -97.9367 82° East 503 579 33,000  Level Minneapolis Center
Tue 10:47:44 PM 40.8358 -97.6817 81° East 504 580 33,000  Level Minneapolis Center
Tue 10:48:46 PM 40.8717 -97.4989 75° East 511 588 33,000  Level Minneapolis Center
Tue 10:49:47 PM 40.9036 -97.3272 76° East 512 589 33,000  Level Minneapolis Center
Tue 10:50:48 PM 40.9319 -97.1419 78° East 515 593 33,000  Level Minneapolis Center
Tue 10:51:49 PM 40.9608 -96.9561 78° East 517 595 33,000  Level Minneapolis Center
Tue 10:52:50 PM 40.9914 -96.7708 78° East 517 595 33,000  Level Minneapolis Center
Tue 10:53:51 PM 41.0206 -96.5869 78° East 514 592 33,000  Level Minneapolis Center
Tue 10:54:52 PM 41.0544 -96.3669 78° East 512 589 33,000  Level Minneapolis Center
Tue 10:55:54 PM 41.0831 -96.1836 78° East 512 589 33,000 -1,561 Level Minneapolis Center
Tue 10:56:55 PM 41.1111 -95.9972 79° East 521 600 29,800 -3,148 Descending Minneapolis Center
Tue 10:57:56 PM 41.1356 -95.8150 80° East 552 635 26,600 -2,459 Descending Minneapolis Center
Tue 10:58:57 PM 41.1675 -95.6100 78° East 530 610 24,800 -1,869 Descending Minneapolis Center
Tue 10:59:58 PM 41.1936 -95.4333 79° East 496 571 22,800 -2,115 Descending Minneapolis Center
Tue 11:00:59 PM 41.2189 -95.2625 79° East 476 548 20,500 -2,195 Descending Minneapolis Center
Tue 11:02:01 PM 41.2417 -95.0967 80° East 465 535 18,300 -2,098 Descending Minneapolis Center
Tue 11:03:02 PM 41.2686 -94.9125 79° East 433 498 16,200 -1,967 Descending Minneapolis Center
Tue 11:04:03 PM 41.2878 -94.7650 80° East 414 476 14,300 -1,869 Descending Minneapolis Center
Tue 11:05:04 PM 41.3069 -94.6278 79° East 390 449 12,400 -1,623 Descending Minneapolis Center
Tue 11:06:05 PM 41.3253 -94.4958 79° East 358 412 11,000 -1,012 Descending Minneapolis Center
Tue 11:06:27 PM 41.3372 -94.4450 73° East 327 376 11,000  Level Minneapolis Center
Tue 11:06:45 PM 41.3439 -94.4111 75° East 317 365 11,000  Level Minneapolis Center
Tue 11:07:06 PM 41.3428 -94.3767 92° East 305 351 11,000 -984 Level Minneapolis Center
Tue 11:07:46 PM 41.3619 -94.3044 71° East 300 345 10,000 -1,377 Descending Minneapolis Center
Tue 11:08:07 PM 41.3647 -94.2717 84° East 297 342 9,600 -1,377 Descending Minneapolis Center
Tue 11:08:47 PM 41.3864 -94.1997 68° East 295 339 8,600 -1,645 Descending Minneapolis Center
Tue 11:09:09 PM 41.3883 -94.1700 85° East 288 331 7,900 -2,100 Descending Minneapolis Center
Tue 11:09:47 PM 41.4067 -94.1036 70° East 274 315 6,500 -2,066 Descending Minneapolis Center
Tue 11:10:10 PM 41.4089 -94.0756 84° East 269 310 5,800 -1,574 Descending Minneapolis Center
Tue 11:10:48 PM 41.4289 -94.0019 70° East 266 306 4,900 -1,279 Descending Minneapolis Center
Tue 11:11:11 PM 41.4300 -93.9756 87° East 263 303 4,500 -984 Descending Minneapolis Center
Tue 11:11:49 PM 41.4494 -93.9139 67° East 255 293 3,900 -885 Descending Minneapolis Center
Tue 11:12:12 PM 41.4500 -93.8900 88° East 246 283 3,600 -783 Descending Minneapolis Center

Login

Don't have an account? Register now (free) for customized features, flight alerts, and more!